createdAt,value
2023-01-19T00:02:30.321Z,20.80
2023-01-19T00:09:42.176Z,18.30
2023-01-19T00:12:10.419Z,16.60
2023-01-19T00:14:38.343Z,13.80
2023-01-19T00:17:06.612Z,10.80
2023-01-19T00:19:34.319Z,14.00
2023-01-19T00:22:02.637Z,12.40
2023-01-19T00:24:57.066Z,13.15
2023-01-19T00:27:25.385Z,13.45
2023-01-19T00:29:53.367Z,11.85
2023-01-19T00:32:21.841Z,12.53
2023-01-19T00:34:55.385Z,11.15
2023-01-19T00:37:23.881Z,13.15
2023-01-19T00:39:55.277Z,17.67
2023-01-19T00:42:44.805Z,18.58
2023-01-19T00:50:03.714Z,18.02
2023-01-19T00:52:32.532Z,17.15
2023-01-19T00:55:00.260Z,16.45
2023-01-19T00:57:30.129Z,14.15
2023-01-19T00:59:57.816Z,14.87
2023-01-19T01:02:26.838Z,16.02
2023-01-19T01:04:55.454Z,14.73
2023-01-19T01:07:24.993Z,19.20
2023-01-19T01:09:52.836Z,17.08
2023-01-19T01:12:21.181Z,19.90
2023-01-19T01:14:52.406Z,27.88
2023-01-19T01:17:25.848Z,24.35
2023-01-19T01:19:53.723Z,17.27
2023-01-19T01:22:21.979Z,14.65
2023-01-19T01:24:49.758Z,13.73
2023-01-19T01:27:18.077Z,15.70
2023-01-19T01:33:53.561Z,12.20
2023-01-19T01:36:21.461Z,13.25
2023-01-19T01:38:49.747Z,14.15
2023-01-19T01:42:08.067Z,16.15
2023-01-19T01:44:50.907Z,13.52
2023-01-19T01:48:28.453Z,13.73
2023-01-19T01:55:01.288Z,12.95
2023-01-19T01:58:01.691Z,17.23
2023-01-19T02:04:32.755Z,18.40
2023-01-19T02:07:20.235Z,19.83
2023-01-19T02:13:48.216Z,14.68
2023-01-19T02:16:17.550Z,13.70
2023-01-19T02:19:59.588Z,9.55
2023-01-19T02:22:36.367Z,12.05
2023-01-19T02:25:05.770Z,16.17
2023-01-19T02:27:34.485Z,14.05
2023-01-19T02:30:04.080Z,13.95
2023-01-19T02:32:32.440Z,14.85
2023-01-19T02:35:00.630Z,14.18
2023-01-19T02:37:40.578Z,15.40
2023-01-19T02:40:14.691Z,21.40
2023-01-19T02:43:36.274Z,18.70
2023-01-19T03:04:57.532Z,11.88
2023-01-19T03:07:39.770Z,13.25
2023-01-19T03:15:49.731Z,12.30
2023-01-19T03:18:23.198Z,10.85
2023-01-19T03:20:55.511Z,13.02
2023-01-19T03:23:27.348Z,12.35
2023-01-19T03:25:57.061Z,10.65
2023-01-19T03:28:28.422Z,12.63
2023-01-19T03:31:17.101Z,17.25
2023-01-19T03:33:50.408Z,21.90
2023-01-19T03:41:09.026Z,17.73
2023-01-19T04:03:15.373Z,26.38
2023-01-19T04:05:44.896Z,17.10
2023-01-19T04:08:13.153Z,21.27
2023-01-19T04:15:12.851Z,18.08
2023-01-19T04:17:41.495Z,18.83
2023-01-19T04:20:10.368Z,16.30
2023-01-19T04:23:05.752Z,61.50
2023-01-19T04:25:33.926Z,30.27
2023-01-19T04:28:01.664Z,36.58
2023-01-19T04:30:30.055Z,36.13
2023-01-19T04:33:00.699Z,17.53
2023-01-19T04:35:29.351Z,16.05
2023-01-19T04:37:57.054Z,16.95
2023-01-19T04:40:25.413Z,21.52
2023-01-19T04:47:22.471Z,24.83
2023-01-19T04:49:50.353Z,25.23
2023-01-19T04:52:18.505Z,23.92
2023-01-19T04:54:46.564Z,25.23
2023-01-19T04:57:14.737Z,25.27
2023-01-19T04:59:42.840Z,25.90
2023-01-19T05:02:12.150Z,20.05
2023-01-19T05:04:40.130Z,26.42
2023-01-19T05:11:47.247Z,27.83
2023-01-19T05:14:15.157Z,30.90
2023-01-19T05:16:43.459Z,39.75
2023-01-19T05:19:12.419Z,41.50
2023-01-19T05:26:24.563Z,46.35
2023-01-19T05:28:52.672Z,43.83
2023-01-19T05:31:20.898Z,47.67
2023-01-19T05:33:49.440Z,48.50
2023-01-19T05:36:17.590Z,46.13
2023-01-19T05:38:46.566Z,48.90
2023-01-19T05:41:15.595Z,51.97
2023-01-19T05:43:43.486Z,52.08
2023-01-19T05:46:12.280Z,53.35
2023-01-19T05:48:40.407Z,45.17
2023-01-19T05:51:09.086Z,40.42
2023-01-19T05:53:37.120Z,42.58
2023-01-19T05:56:09.427Z,53.97
2023-01-19T05:58:40.037Z,49.40
2023-01-19T06:01:11.113Z,41.78
2023-01-19T06:03:40.380Z,32.63
2023-01-19T06:06:08.890Z,35.55
2023-01-19T06:17:59.823Z,32.10
2023-01-19T06:20:27.997Z,43.83
2023-01-19T06:27:46.477Z,41.72
2023-01-19T06:31:29.814Z,43.13
2023-01-19T06:33:57.913Z,37.20
2023-01-19T06:36:26.244Z,44.60
2023-01-19T06:38:54.343Z,27.00
2023-01-19T06:41:22.361Z,27.08
2023-01-19T06:43:50.344Z,31.50
2023-01-19T06:46:18.411Z,64.47
2023-01-19T06:48:46.307Z,58.65
2023-01-19T06:51:14.759Z,58.37
2023-01-19T06:54:11.210Z,55.95
2023-01-19T06:56:40.300Z,61.05
2023-01-19T06:59:37.717Z,86.10
2023-01-19T07:02:26.728Z,98.22
2023-01-19T07:05:02.931Z,81.97
2023-01-19T07:12:21.339Z,93.50
2023-01-19T07:14:49.969Z,88.40
2023-01-19T07:17:21.728Z,88.72
2023-01-19T07:19:49.890Z,90.97
2023-01-19T07:27:07.336Z,66.88
2023-01-19T07:34:12.634Z,51.42
2023-01-19T07:37:36.224Z,47.90
2023-01-19T07:40:04.899Z,42.10
2023-01-19T07:42:32.542Z,43.75
2023-01-19T07:45:01.405Z,45.95
2023-01-19T07:48:46.974Z,49.85
2023-01-19T07:51:18.532Z,60.17
2023-01-19T07:55:01.699Z,74.47
2023-01-19T07:57:30.414Z,66.90
2023-01-19T07:59:58.509Z,64.80
2023-01-19T08:02:27.086Z,60.47
2023-01-19T08:09:30.552Z,41.72
2023-01-19T08:16:47.383Z,32.35
2023-01-19T08:32:40.787Z,36.05
2023-01-19T08:35:41.390Z,54.40
2023-01-19T08:38:11.105Z,42.70
2023-01-19T08:41:33.461Z,40.03
2023-01-19T08:44:02.357Z,31.50
2023-01-19T08:46:31.707Z,34.78
2023-01-19T08:54:19.778Z,44.50
2023-01-19T08:57:54.233Z,36.73
2023-01-19T09:00:30.029Z,43.63
2023-01-19T09:04:49.729Z,91.68
2023-01-19T09:07:20.055Z,85.97
2023-01-19T09:14:24.647Z,69.13
2023-01-19T09:16:56.884Z,67.35
2023-01-19T09:19:26.552Z,62.90
2023-01-19T09:21:55.716Z,60.30
2023-01-19T09:24:30.053Z,65.65
2023-01-19T09:27:48.126Z,42.63
2023-01-19T09:30:22.994Z,46.58
2023-01-19T09:32:51.423Z,43.60
2023-01-19T09:40:11.978Z,54.97
2023-01-19T09:42:54.895Z,46.63
2023-01-19T09:45:43.352Z,41.47
2023-01-19T09:48:36.768Z,55.17
2023-01-19T09:51:12.891Z,75.93
2023-01-19T09:54:19.943Z,67.38
2023-01-19T09:57:00.593Z,65.47
2023-01-19T09:59:39.963Z,68.20
2023-01-19T10:02:36.234Z,59.83
2023-01-19T10:05:23.244Z,50.95
2023-01-19T10:08:10.567Z,42.22
2023-01-19T10:10:43.754Z,31.80
2023-01-19T10:13:48.784Z,27.30
2023-01-19T10:17:00.268Z,28.40
2023-01-19T10:22:57.989Z,24.65
2023-01-19T10:25:28.328Z,24.40
2023-01-19T10:28:00.404Z,21.20
2023-01-19T10:30:31.277Z,21.65
2023-01-19T10:33:00.442Z,18.08
2023-01-19T10:35:30.973Z,17.55
2023-01-19T10:38:02.706Z,22.83
2023-01-19T10:40:37.268Z,17.45
2023-01-19T10:47:45.790Z,14.35
2023-01-19T10:55:23.828Z,14.13
2023-01-19T10:59:42.425Z,14.27
2023-01-19T11:06:44.686Z,14.38
2023-01-19T11:13:22.904Z,19.03
2023-01-19T11:20:30.705Z,64.05
2023-01-19T11:23:19.185Z,33.42
2023-01-19T11:25:52.056Z,18.23
2023-01-19T11:28:45.050Z,13.60
2023-01-19T11:31:14.431Z,15.85
2023-01-19T11:33:54.972Z,14.15
2023-01-19T11:40:39.460Z,13.20
2023-01-19T11:44:28.396Z,14.00
2023-01-19T11:47:05.473Z,26.27
2023-01-19T11:49:44.583Z,20.38
2023-01-19T11:53:10.523Z,20.85
2023-01-19T11:56:23.246Z,17.98
2023-01-19T11:58:57.963Z,20.97
2023-01-19T12:01:38.271Z,20.20
2023-01-19T12:04:39.909Z,27.20
2023-01-19T12:07:22.796Z,32.95
2023-01-19T12:10:01.616Z,31.77
2023-01-19T12:15:38.291Z,17.88
2023-01-19T12:18:13.500Z,17.00
2023-01-19T12:28:31.112Z,25.43
2023-01-19T12:31:02.419Z,17.77
2023-01-19T12:33:38.311Z,19.83
2023-01-19T12:40:44.349Z,22.63
2023-01-19T12:43:16.885Z,20.60
2023-01-19T12:45:48.446Z,21.80
2023-01-19T12:48:27.746Z,24.27
2023-01-19T12:50:55.916Z,20.38
2023-01-19T12:53:26.899Z,18.75
2023-01-19T12:56:01.789Z,9.97
2023-01-19T12:58:30.889Z,11.65
2023-01-19T13:01:22.172Z,19.50
2023-01-19T13:04:34.352Z,30.90
2023-01-19T13:07:22.318Z,16.90
2023-01-19T13:09:58.211Z,16.17
2023-01-19T13:12:26.746Z,13.02
2023-01-19T13:15:28.321Z,10.45
2023-01-19T13:17:57.606Z,30.35
2023-01-19T13:20:44.880Z,15.30
2023-01-19T13:23:26.352Z,6.97
2023-01-19T13:26:07.786Z,10.90
2023-01-19T13:32:44.544Z,6.45
2023-01-19T13:35:17.955Z,9.50
2023-01-19T13:37:46.977Z,5.87
2023-01-19T13:40:23.793Z,7.72
2023-01-19T13:42:54.331Z,10.43
2023-01-19T13:45:38.018Z,7.75
2023-01-19T13:52:48.556Z,7.73
2023-01-19T13:55:21.279Z,10.13
2023-01-19T14:01:40.546Z,8.88
2023-01-19T14:04:32.242Z,11.70
2023-01-19T14:07:22.232Z,4.67
2023-01-19T14:10:06.718Z,8.63
2023-01-19T14:12:39.044Z,5.80
2023-01-19T14:15:18.615Z,7.40
2023-01-19T14:21:45.067Z,4.30
2023-01-19T14:24:18.461Z,3.55
2023-01-19T14:26:48.181Z,5.07
2023-01-19T14:29:22.215Z,5.70
2023-01-19T14:36:34.988Z,6.60
2023-01-19T14:39:04.319Z,8.77
2023-01-19T14:41:35.309Z,10.65
2023-01-19T14:48:18.839Z,6.57
2023-01-19T14:51:02.360Z,8.70
2023-01-19T14:53:37.661Z,4.80
2023-01-19T14:56:07.746Z,2.78
2023-01-19T14:58:36.252Z,3.45
2023-01-19T15:01:06.880Z,3.58
2023-01-19T15:03:44.198Z,3.20
2023-01-19T15:06:19.563Z,3.78
2023-01-19T15:08:56.182Z,1.65
2023-01-19T15:11:30.484Z,4.95
2023-01-19T15:14:51.290Z,4.10
2023-01-19T15:17:29.166Z,11.30
2023-01-19T15:19:57.397Z,5.10
2023-01-19T15:22:28.742Z,7.22
2023-01-19T15:25:00.381Z,3.47
2023-01-19T15:27:29.019Z,2.58
2023-01-19T15:29:57.057Z,2.83
2023-01-19T15:32:25.428Z,2.50
2023-01-19T15:34:54.012Z,4.20
2023-01-19T15:37:22.502Z,2.22
2023-01-19T15:44:39.486Z,2.87
2023-01-19T15:47:08.032Z,6.30
2023-01-19T15:50:28.174Z,2.10
2023-01-19T15:57:48.652Z,5.85
2023-01-19T16:00:17.582Z,3.27
2023-01-19T16:03:42.744Z,4.63
2023-01-19T16:06:16.698Z,3.63
2023-01-19T16:08:45.374Z,1.60
2023-01-19T16:11:15.983Z,3.67
2023-01-19T16:13:47.679Z,4.33
2023-01-19T16:16:18.844Z,3.97
2023-01-19T16:18:47.277Z,3.80
2023-01-19T16:21:15.914Z,6.38
2023-01-19T16:28:15.346Z,2.20
2023-01-19T16:30:43.297Z,2.33
2023-01-19T16:33:12.019Z,1.95
2023-01-19T16:35:40.037Z,1.90
2023-01-19T16:38:09.824Z,3.72
2023-01-19T16:40:38.094Z,3.07
2023-01-19T16:43:06.272Z,1.85
2023-01-19T16:55:52.896Z,1.98
2023-01-19T16:58:20.992Z,2.40
2023-01-19T17:00:52.204Z,3.35
2023-01-19T17:03:20.358Z,1.83
2023-01-19T17:05:50.502Z,3.92
2023-01-19T17:08:20.881Z,2.88
2023-01-19T17:10:49.039Z,3.77
2023-01-19T17:13:17.186Z,2.95
2023-01-19T17:15:45.520Z,4.75
2023-01-19T17:18:13.510Z,5.22
2023-01-19T17:20:41.808Z,4.25
2023-01-19T17:23:09.872Z,2.75
2023-01-19T17:25:38.190Z,3.47
2023-01-19T17:28:06.058Z,3.65
2023-01-19T17:30:34.520Z,3.05
2023-01-19T17:33:02.474Z,5.15
2023-01-19T17:35:30.820Z,4.30
2023-01-19T17:37:59.041Z,3.40
2023-01-19T17:40:27.280Z,4.60
2023-01-19T17:47:45.293Z,5.38
2023-01-19T17:50:14.220Z,103.10
2023-01-19T17:52:42.131Z,30.45
2023-01-19T17:55:11.429Z,26.90
2023-01-19T17:57:39.663Z,15.90
2023-01-19T18:00:08.834Z,12.20
2023-01-19T18:02:51.460Z,16.93
2023-01-19T18:05:20.990Z,12.63
2023-01-19T18:07:48.784Z,12.38
2023-01-19T18:10:17.431Z,11.32
2023-01-19T18:12:45.690Z,11.05
2023-01-19T18:15:16.634Z,28.53
2023-01-19T18:17:45.185Z,25.58
2023-01-19T18:24:56.174Z,21.02
2023-01-19T18:27:49.478Z,20.88
2023-01-19T18:30:18.214Z,70.97
2023-01-19T18:32:47.205Z,72.93
2023-01-19T18:35:15.295Z,54.50
2023-01-19T18:38:34.775Z,42.38
2023-01-19T18:41:07.974Z,33.35
2023-01-19T18:44:26.996Z,41.67
2023-01-19T18:46:57.050Z,43.03
2023-01-19T18:49:25.317Z,57.45
2023-01-19T18:51:53.124Z,50.30
2023-01-19T18:54:21.470Z,141.25
2023-01-19T18:57:39.156Z,113.97
2023-01-19T19:00:07.892Z,37.90
2023-01-19T19:03:50.671Z,13.48
2023-01-19T19:06:21.708Z,7.13
2023-01-19T19:08:51.982Z,4.85
2023-01-19T19:11:24.912Z,4.00
2023-01-19T19:13:58.713Z,3.38
2023-01-19T19:17:16.666Z,5.63
2023-01-19T19:20:24.002Z,4.90
2023-01-19T19:22:52.141Z,3.47
2023-01-19T19:25:20.438Z,5.93
2023-01-19T19:27:52.470Z,16.83
2023-01-19T19:30:21.723Z,20.65
2023-01-19T19:32:54.203Z,30.65
2023-01-19T19:35:31.492Z,26.58
2023-01-19T19:38:00.418Z,8.90
2023-01-19T19:40:29.026Z,9.48
2023-01-19T19:43:00.579Z,15.00
2023-01-19T19:45:31.598Z,10.73
2023-01-19T19:47:59.450Z,12.57
2023-01-19T19:50:27.583Z,21.30
2023-01-19T19:52:59.209Z,27.95
2023-01-19T19:55:28.339Z,24.38
2023-01-19T19:57:56.255Z,15.98
2023-01-19T20:00:24.735Z,8.45
2023-01-19T20:02:52.553Z,5.57
2023-01-19T20:05:21.067Z,6.22
2023-01-19T20:07:49.552Z,6.07
2023-01-19T20:10:18.031Z,11.18
2023-01-19T20:12:45.874Z,7.88
2023-01-19T20:15:14.465Z,5.43
2023-01-19T20:17:42.176Z,3.53
2023-01-19T20:20:11.466Z,2.60
2023-01-19T20:22:39.630Z,2.45
2023-01-19T20:25:08.553Z,1.73
2023-01-19T20:27:38.867Z,4.63
2023-01-19T20:30:07.955Z,3.80
2023-01-19T20:32:35.649Z,3.53
2023-01-19T20:35:04.881Z,3.80
2023-01-19T20:37:32.854Z,4.43
2023-01-19T20:40:00.992Z,8.80
2023-01-19T20:42:28.927Z,9.93
2023-01-19T20:44:57.236Z,11.55
2023-01-19T20:47:26.329Z,30.15
2023-01-19T20:49:54.624Z,19.88
2023-01-19T20:52:28.241Z,19.37
2023-01-19T20:54:56.475Z,18.13
2023-01-19T20:57:24.605Z,17.15
2023-01-19T20:59:52.978Z,17.77
2023-01-19T21:02:23.075Z,17.23
2023-01-19T21:04:53.654Z,16.13
2023-01-19T21:07:21.610Z,12.10
2023-01-19T21:09:49.787Z,14.40
2023-01-19T21:12:17.864Z,10.95
2023-01-19T21:14:46.304Z,12.23
2023-01-19T21:17:16.237Z,11.45
2023-01-19T21:19:49.260Z,10.55
2023-01-19T21:31:16.552Z,29.55
2023-01-19T21:34:59.994Z,28.50
2023-01-19T21:42:44.234Z,16.48
2023-01-19T21:45:13.164Z,37.65
2023-01-19T21:48:59.960Z,17.15
2023-01-19T21:51:30.149Z,13.93
2023-01-19T21:53:59.965Z,12.43
2023-01-19T22:01:38.306Z,11.85
2023-01-19T22:04:06.740Z,9.23
2023-01-19T22:11:23.982Z,8.73
2023-01-19T22:13:52.615Z,10.93
2023-01-19T22:16:22.856Z,11.35
2023-01-19T22:22:41.417Z,12.65
2023-01-19T22:25:10.254Z,10.23
2023-01-19T22:27:39.067Z,10.98
2023-01-19T22:30:10.174Z,15.75
2023-01-19T22:32:38.716Z,10.23
2023-01-19T22:35:06.883Z,8.95
2023-01-19T22:37:38.051Z,10.15
2023-01-19T22:40:06.715Z,12.85
2023-01-19T22:42:34.360Z,20.17
2023-01-19T22:45:02.540Z,19.80
2023-01-19T22:47:30.223Z,18.73
2023-01-19T22:49:58.375Z,21.02
2023-01-19T22:52:26.106Z,18.08
2023-01-19T22:54:57.370Z,17.98
2023-01-19T22:57:25.268Z,23.85
2023-01-19T22:59:53.379Z,31.57
2023-01-19T23:02:21.423Z,26.08
2023-01-19T23:09:23.406Z,19.85
2023-01-19T23:11:51.773Z,21.50
2023-01-19T23:14:22.110Z,21.57
2023-01-19T23:21:40.418Z,21.92
2023-01-19T23:24:08.816Z,21.25
2023-01-19T23:26:38.556Z,18.33
2023-01-19T23:29:13.111Z,18.90
2023-01-19T23:32:34.574Z,17.70
2023-01-19T23:35:02.856Z,19.88
2023-01-19T23:37:34.629Z,12.35
2023-01-19T23:40:02.866Z,16.77
2023-01-19T23:43:27.205Z,18.17
2023-01-19T23:45:55.565Z,22.02
2023-01-19T23:48:23.404Z,17.88
2023-01-19T23:51:47.270Z,16.83
2023-01-19T23:54:40.094Z,15.07
2023-01-19T23:57:08.385Z,15.20
2023-01-19T23:59:36.191Z,12.02
